sensor_id;sensor_type;location;lat;lon;timestamp;temperature;humidity
52036;DHT22;38046;49.448;32.074;2023-02-15T00:01:16;3.70;75.30
52036;DHT22;38046;49.448;32.074;2023-02-15T00:03:41;3.70;75.20
52036;DHT22;38046;49.448;32.074;2023-02-15T00:06:07;3.70;75.20
52036;DHT22;38046;49.448;32.074;2023-02-15T00:08:33;3.70;75.00
52036;DHT22;38046;49.448;32.074;2023-02-15T00:11:10;3.70;74.90
52036;DHT22;38046;49.448;32.074;2023-02-15T00:13:37;3.70;74.70
52036;DHT22;38046;49.448;32.074;2023-02-15T00:16:06;3.70;74.70
52036;DHT22;38046;49.448;32.074;2023-02-15T00:18:32;3.70;74.60
52036;DHT22;38046;49.448;32.074;2023-02-15T00:21:02;3.70;74.50
52036;DHT22;38046;49.448;32.074;2023-02-15T00:23:28;3.70;74.50
52036;DHT22;38046;49.448;32.074;2023-02-15T00:26:06;3.70;74.30
52036;DHT22;38046;49.448;32.074;2023-02-15T00:28:32;3.70;74.30
52036;DHT22;38046;49.448;32.074;2023-02-15T00:31:08;3.70;74.30
52036;DHT22;38046;49.448;32.074;2023-02-15T00:33:35;3.70;74.10
52036;DHT22;38046;49.448;32.074;2023-02-15T00:36:01;3.70;73.90
52036;DHT22;38046;49.448;32.074;2023-02-15T00:38:28;3.70;73.90
52036;DHT22;38046;49.448;32.074;2023-02-15T00:40:55;3.70;73.80
52036;DHT22;38046;49.448;32.074;2023-02-15T00:43:21;3.70;73.80
52036;DHT22;38046;49.448;32.074;2023-02-15T00:45:47;3.70;73.60
52036;DHT22;38046;49.448;32.074;2023-02-15T00:48:12;3.70;73.50
52036;DHT22;38046;49.448;32.074;2023-02-15T00:50:38;3.80;73.40
52036;DHT22;38046;49.448;32.074;2023-02-15T00:53:04;3.70;73.30
52036;DHT22;38046;49.448;32.074;2023-02-15T00:55:29;3.70;73.10
52036;DHT22;38046;49.448;32.074;2023-02-15T00:57:55;3.70;73.10
52036;DHT22;38046;49.448;32.074;2023-02-15T01:00:21;3.80;73.10
52036;DHT22;38046;49.448;32.074;2023-02-15T01:02:47;3.70;73.00
52036;DHT22;38046;49.448;32.074;2023-02-15T01:05:12;3.80;72.90
52036;DHT22;38046;49.448;32.074;2023-02-15T01:07:38;3.70;72.90
52036;DHT22;38046;49.448;32.074;2023-02-15T01:10:06;3.70;72.70
52036;DHT22;38046;49.448;32.074;2023-02-15T01:12:32;3.70;72.80
52036;DHT22;38046;49.448;32.074;2023-02-15T01:14:57;3.70;72.80
52036;DHT22;38046;49.448;32.074;2023-02-15T01:17:23;3.70;72.80
52036;DHT22;38046;49.448;32.074;2023-02-15T01:19:48;3.70;72.60
52036;DHT22;38046;49.448;32.074;2023-02-15T01:22:14;3.70;72.60
52036;DHT22;38046;49.448;32.074;2023-02-15T01:24:40;3.70;72.60
52036;DHT22;38046;49.448;32.074;2023-02-15T01:27:06;3.70;72.50
52036;DHT22;38046;49.448;32.074;2023-02-15T01:29:31;3.70;72.40
52036;DHT22;38046;49.448;32.074;2023-02-15T01:31:57;3.70;72.20
52036;DHT22;38046;49.448;32.074;2023-02-15T01:34:22;3.70;72.00
52036;DHT22;38046;49.448;32.074;2023-02-15T01:36:48;3.70;71.90
52036;DHT22;38046;49.448;32.074;2023-02-15T01:39:14;3.70;71.80
52036;DHT22;38046;49.448;32.074;2023-02-15T01:41:40;3.70;71.70
52036;DHT22;38046;49.448;32.074;2023-02-15T01:47:18;3.60;71.50
52036;DHT22;38046;49.448;32.074;2023-02-15T01:49:46;3.70;71.70
52036;DHT22;38046;49.448;32.074;2023-02-15T01:52:14;3.60;71.80
52036;DHT22;38046;49.448;32.074;2023-02-15T01:54:42;3.60;71.80
52036;DHT22;38046;49.448;32.074;2023-02-15T01:57:13;3.60;71.70
52036;DHT22;38046;49.448;32.074;2023-02-15T01:59:41;3.60;71.70
52036;DHT22;38046;49.448;32.074;2023-02-15T02:02:09;3.60;71.60
52036;DHT22;38046;49.448;32.074;2023-02-15T02:04:48;3.70;71.60
52036;DHT22;38046;49.448;32.074;2023-02-15T02:07:16;3.70;71.30
52036;DHT22;38046;49.448;32.074;2023-02-15T02:09:43;3.70;71.30
52036;DHT22;38046;49.448;32.074;2023-02-15T02:12:10;3.60;71.20
52036;DHT22;38046;49.448;32.074;2023-02-15T02:14:36;3.70;71.30
52036;DHT22;38046;49.448;32.074;2023-02-15T02:17:20;3.70;71.00
52036;DHT22;38046;49.448;32.074;2023-02-15T02:44:19;3.60;71.20
52036;DHT22;38046;49.448;32.074;2023-02-15T02:49:57;3.60;70.30
52036;DHT22;38046;49.448;32.074;2023-02-15T02:52:42;3.60;70.20
52036;DHT22;38046;49.448;32.074;2023-02-15T02:58:03;3.60;69.40
52036;DHT22;38046;49.448;32.074;2023-02-15T03:00:34;3.60;69.50
52036;DHT22;38046;49.448;32.074;2023-02-15T03:03:10;3.60;69.40
52036;DHT22;38046;49.448;32.074;2023-02-15T03:05:40;3.60;69.10
52036;DHT22;38046;49.448;32.074;2023-02-15T03:08:07;3.60;69.20
52036;DHT22;38046;49.448;32.074;2023-02-15T03:10:35;3.60;69.10
52036;DHT22;38046;49.448;32.074;2023-02-15T03:13:02;3.60;68.90
52036;DHT22;38046;49.448;32.074;2023-02-15T03:15:35;3.60;68.90
52036;DHT22;38046;49.448;32.074;2023-02-15T03:18:28;3.60;68.80
52036;DHT22;38046;49.448;32.074;2023-02-15T03:20:55;3.60;68.90
52036;DHT22;38046;49.448;32.074;2023-02-15T03:23:23;3.60;69.20
52036;DHT22;38046;49.448;32.074;2023-02-15T03:25:59;3.60;69.20
52036;DHT22;38046;49.448;32.074;2023-02-15T03:28:31;3.60;69.20
52036;DHT22;38046;49.448;32.074;2023-02-15T03:31:02;3.60;69.30
52036;DHT22;38046;49.448;32.074;2023-02-15T03:33:29;3.60;69.50
52036;DHT22;38046;49.448;32.074;2023-02-15T03:36:34;3.60;69.60
52036;DHT22;38046;49.448;32.074;2023-02-15T03:47:16;3.60;70.10
52036;DHT22;38046;49.448;32.074;2023-02-15T03:49:57;3.60;70.10
52036;DHT22;38046;49.448;32.074;2023-02-15T03:52:26;3.60;70.20
52036;DHT22;38046;49.448;32.074;2023-02-15T03:54:53;3.60;70.00
52036;DHT22;38046;49.448;32.074;2023-02-15T03:57:22;3.60;70.10
52036;DHT22;38046;49.448;32.074;2023-02-15T04:00:22;3.60;70.20
52036;DHT22;38046;49.448;32.074;2023-02-15T04:05:41;3.50;69.80
52036;DHT22;38046;49.448;32.074;2023-02-15T04:08:09;3.50;69.60
52036;DHT22;38046;49.448;32.074;2023-02-15T04:10:35;3.50;69.50
52036;DHT22;38046;49.448;32.074;2023-02-15T04:13:23;3.50;69.40
52036;DHT22;38046;49.448;32.074;2023-02-15T04:15:50;3.50;69.60
52036;DHT22;38046;49.448;32.074;2023-02-15T04:18:39;3.50;69.60
52036;DHT22;38046;49.448;32.074;2023-02-15T04:21:25;3.50;69.60
52036;DHT22;38046;49.448;32.074;2023-02-15T04:24:10;3.50;69.70
52036;DHT22;38046;49.448;32.074;2023-02-15T04:26:55;3.50;69.60
52036;DHT22;38046;49.448;32.074;2023-02-15T04:29:22;3.50;69.90
52036;DHT22;38046;49.448;32.074;2023-02-15T04:31:48;3.40;69.70
52036;DHT22;38046;49.448;32.074;2023-02-15T04:34:14;3.50;70.00
52036;DHT22;38046;49.448;32.074;2023-02-15T04:36:41;3.50;69.90
52036;DHT22;38046;49.448;32.074;2023-02-15T04:39:07;3.50;69.70
52036;DHT22;38046;49.448;32.074;2023-02-15T04:41:34;3.50;69.80
52036;DHT22;38046;49.448;32.074;2023-02-15T04:44:00;3.40;69.80
52036;DHT22;38046;49.448;32.074;2023-02-15T04:46:27;3.40;69.60
52036;DHT22;38046;49.448;32.074;2023-02-15T04:48:53;3.50;69.80
52036;DHT22;38046;49.448;32.074;2023-02-15T04:51:19;3.40;69.70
52036;DHT22;38046;49.448;32.074;2023-02-15T04:53:44;3.50;70.00
52036;DHT22;38046;49.448;32.074;2023-02-15T04:56:10;3.50;69.90
52036;DHT22;38046;49.448;32.074;2023-02-15T04:58:36;3.50;69.70
52036;DHT22;38046;49.448;32.074;2023-02-15T05:01:02;3.50;69.90
52036;DHT22;38046;49.448;32.074;2023-02-15T05:03:28;3.50;69.80
52036;DHT22;38046;49.448;32.074;2023-02-15T05:05:54;3.50;69.60
52036;DHT22;38046;49.448;32.074;2023-02-15T05:08:19;3.50;69.70
52036;DHT22;38046;49.448;32.074;2023-02-15T05:10:48;3.50;69.50
52036;DHT22;38046;49.448;32.074;2023-02-15T05:13:14;3.50;69.50
52036;DHT22;38046;49.448;32.074;2023-02-15T05:15:40;3.50;69.70
52036;DHT22;38046;49.448;32.074;2023-02-15T05:18:05;3.40;69.50
52036;DHT22;38046;49.448;32.074;2023-02-15T05:20:32;3.40;69.40
52036;DHT22;38046;49.448;32.074;2023-02-15T05:22:58;3.50;69.20
52036;DHT22;38046;49.448;32.074;2023-02-15T05:25:24;3.40;69.20
52036;DHT22;38046;49.448;32.074;2023-02-15T05:28:10;3.50;69.20
52036;DHT22;38046;49.448;32.074;2023-02-15T05:30:46;3.40;69.10
52036;DHT22;38046;49.448;32.074;2023-02-15T05:33:12;3.50;69.40
52036;DHT22;38046;49.448;32.074;2023-02-15T05:35:37;3.40;69.00
52036;DHT22;38046;49.448;32.074;2023-02-15T05:38:03;3.40;69.00
52036;DHT22;38046;49.448;32.074;2023-02-15T05:40:29;3.40;69.20
52036;DHT22;38046;49.448;32.074;2023-02-15T05:42:56;3.40;69.00
52036;DHT22;38046;49.448;32.074;2023-02-15T05:45:22;3.40;68.80
52036;DHT22;38046;49.448;32.074;2023-02-15T05:47:47;3.40;68.90
52036;DHT22;38046;49.448;32.074;2023-02-15T05:50:13;3.40;68.70
52036;DHT22;38046;49.448;32.074;2023-02-15T05:52:39;3.40;68.90
52036;DHT22;38046;49.448;32.074;2023-02-15T05:55:05;3.50;69.00
52036;DHT22;38046;49.448;32.074;2023-02-15T05:57:31;3.50;69.00
52036;DHT22;38046;49.448;32.074;2023-02-15T05:59:57;3.50;69.00
52036;DHT22;38046;49.448;32.074;2023-02-15T06:02:22;3.50;69.60
52036;DHT22;38046;49.448;32.074;2023-02-15T06:04:48;3.50;69.00
52036;DHT22;38046;49.448;32.074;2023-02-15T06:07:14;3.50;68.90
52036;DHT22;38046;49.448;32.074;2023-02-15T06:09:40;3.50;68.90
52036;DHT22;38046;49.448;32.074;2023-02-15T06:12:05;3.60;68.90
52036;DHT22;38046;49.448;32.074;2023-02-15T06:14:31;3.50;68.80
52036;DHT22;38046;49.448;32.074;2023-02-15T06:16:57;3.50;68.70
52036;DHT22;38046;49.448;32.074;2023-02-15T06:19:22;3.50;68.60
52036;DHT22;38046;49.448;32.074;2023-02-15T06:21:49;3.60;68.60
52036;DHT22;38046;49.448;32.074;2023-02-15T06:24:14;3.50;68.60
52036;DHT22;38046;49.448;32.074;2023-02-15T06:26:40;3.60;68.70
52036;DHT22;38046;49.448;32.074;2023-02-15T06:29:06;3.60;68.60
52036;DHT22;38046;49.448;32.074;2023-02-15T06:31:31;3.60;68.70
52036;DHT22;38046;49.448;32.074;2023-02-15T06:33:57;3.60;68.40
52036;DHT22;38046;49.448;32.074;2023-02-15T06:36:27;3.60;68.50
52036;DHT22;38046;49.448;32.074;2023-02-15T06:38:54;3.60;68.50
52036;DHT22;38046;49.448;32.074;2023-02-15T06:41:20;3.60;68.50
52036;DHT22;38046;49.448;32.074;2023-02-15T06:43:46;3.60;68.50
52036;DHT22;38046;49.448;32.074;2023-02-15T06:46:11;3.60;68.40
52036;DHT22;38046;49.448;32.074;2023-02-15T06:48:37;3.60;68.30
52036;DHT22;38046;49.448;32.074;2023-02-15T06:51:03;3.60;69.10
52036;DHT22;38046;49.448;32.074;2023-02-15T06:53:29;3.60;68.40
52036;DHT22;38046;49.448;32.074;2023-02-15T06:56:06;3.60;68.30
52036;DHT22;38046;49.448;32.074;2023-02-15T06:58:37;3.70;68.20
52036;DHT22;38046;49.448;32.074;2023-02-15T07:01:04;3.70;68.10
52036;DHT22;38046;49.448;32.074;2023-02-15T07:03:29;3.70;68.10
52036;DHT22;38046;49.448;32.074;2023-02-15T07:05:57;3.70;68.00
52036;DHT22;38046;49.448;32.074;2023-02-15T07:08:24;3.70;68.10
52036;DHT22;38046;49.448;32.074;2023-02-15T07:10:51;3.80;67.90
52036;DHT22;38046;49.448;32.074;2023-02-15T07:13:17;3.70;67.50
52036;DHT22;38046;49.448;32.074;2023-02-15T07:15:43;3.70;67.00
52036;DHT22;38046;49.448;32.074;2023-02-15T07:18:08;3.80;67.30
52036;DHT22;38046;49.448;32.074;2023-02-15T07:20:36;3.80;67.00
52036;DHT22;38046;49.448;32.074;2023-02-15T07:23:03;3.80;67.30
52036;DHT22;38046;49.448;32.074;2023-02-15T07:25:28;3.80;67.20
52036;DHT22;38046;49.448;32.074;2023-02-15T07:27:58;3.80;67.00
52036;DHT22;38046;49.448;32.074;2023-02-15T07:30:24;3.90;67.00
52036;DHT22;38046;49.448;32.074;2023-02-15T07:32:50;3.90;66.70
52036;DHT22;38046;49.448;32.074;2023-02-15T07:35:34;3.90;66.70
52036;DHT22;38046;49.448;32.074;2023-02-15T07:38:00;3.90;66.70
52036;DHT22;38046;49.448;32.074;2023-02-15T07:40:26;3.90;67.30
52036;DHT22;38046;49.448;32.074;2023-02-15T07:42:52;3.90;66.80
52036;DHT22;38046;49.448;32.074;2023-02-15T07:45:20;4.00;66.60
52036;DHT22;38046;49.448;32.074;2023-02-15T07:47:46;4.00;67.00
52036;DHT22;38046;49.448;32.074;2023-02-15T07:50:12;4.00;67.10
52036;DHT22;38046;49.448;32.074;2023-02-15T07:52:38;4.10;67.30
52036;DHT22;38046;49.448;32.074;2023-02-15T07:55:04;4.10;67.10
52036;DHT22;38046;49.448;32.074;2023-02-15T07:57:30;4.10;67.00
52036;DHT22;38046;49.448;32.074;2023-02-15T07:59:56;4.20;67.20
52036;DHT22;38046;49.448;32.074;2023-02-15T08:02:22;4.10;67.40
52036;DHT22;38046;49.448;32.074;2023-02-15T08:04:47;4.20;67.10
52036;DHT22;38046;49.448;32.074;2023-02-15T08:07:13;4.20;67.00
52036;DHT22;38046;49.448;32.074;2023-02-15T08:13:00;4.30;66.30
52036;DHT22;38046;49.448;32.074;2023-02-15T08:15:26;4.30;66.40
52036;DHT22;38046;49.448;32.074;2023-02-15T08:17:52;4.30;66.20
52036;DHT22;38046;49.448;32.074;2023-02-15T08:20:17;4.40;66.50
52036;DHT22;38046;49.448;32.074;2023-02-15T08:22:43;4.40;66.20
52036;DHT22;38046;49.448;32.074;2023-02-15T08:25:08;4.40;65.90
52036;DHT22;38046;49.448;32.074;2023-02-15T08:27:34;4.50;66.10
52036;DHT22;38046;49.448;32.074;2023-02-15T08:30:00;4.50;66.10
52036;DHT22;38046;49.448;32.074;2023-02-15T08:32:25;4.50;65.70
52036;DHT22;38046;49.448;32.074;2023-02-15T08:34:51;4.60;65.50
52036;DHT22;38046;49.448;32.074;2023-02-15T08:37:17;4.60;65.30
52036;DHT22;38046;49.448;32.074;2023-02-15T08:39:42;4.60;65.10
52036;DHT22;38046;49.448;32.074;2023-02-15T08:42:08;4.60;64.90
52036;DHT22;38046;49.448;32.074;2023-02-15T08:44:34;4.60;64.80
52036;DHT22;38046;49.448;32.074;2023-02-15T08:47:00;4.70;65.40
52036;DHT22;38046;49.448;32.074;2023-02-15T08:49:28;4.70;64.60
52036;DHT22;38046;49.448;32.074;2023-02-15T08:51:54;4.70;64.60
52036;DHT22;38046;49.448;32.074;2023-02-15T08:54:21;4.70;64.50
52036;DHT22;38046;49.448;32.074;2023-02-15T08:56:47;4.80;64.40
52036;DHT22;38046;49.448;32.074;2023-02-15T08:59:22;4.80;64.00
52036;DHT22;38046;49.448;32.074;2023-02-15T09:01:50;4.80;63.70
52036;DHT22;38046;49.448;32.074;2023-02-15T09:04:16;4.70;63.60
52036;DHT22;38046;49.448;32.074;2023-02-15T09:06:43;4.70;63.50
52036;DHT22;38046;49.448;32.074;2023-02-15T09:09:10;4.70;63.30
52036;DHT22;38046;49.448;32.074;2023-02-15T09:11:39;4.60;63.20
52036;DHT22;38046;49.448;32.074;2023-02-15T09:14:08;4.60;63.50
52036;DHT22;38046;49.448;32.074;2023-02-15T09:16:36;4.60;63.50
52036;DHT22;38046;49.448;32.074;2023-02-15T09:19:03;4.60;63.50
52036;DHT22;38046;49.448;32.074;2023-02-15T09:21:31;4.60;63.60
52036;DHT22;38046;49.448;32.074;2023-02-15T09:24:02;4.60;63.20
52036;DHT22;38046;49.448;32.074;2023-02-15T09:26:30;4.60;63.20
52036;DHT22;38046;49.448;32.074;2023-02-15T09:28:58;4.50;63.30
52036;DHT22;38046;49.448;32.074;2023-02-15T09:31:28;4.60;63.10
52036;DHT22;38046;49.448;32.074;2023-02-15T09:33:54;4.50;62.60
52036;DHT22;38046;49.448;32.074;2023-02-15T09:36:26;4.60;62.50
52036;DHT22;38046;49.448;32.074;2023-02-15T09:38:58;4.60;62.50
52036;DHT22;38046;49.448;32.074;2023-02-15T10:20:02;4.50;60.60
52036;DHT22;38046;49.448;32.074;2023-02-15T10:27:51;4.60;60.00
52036;DHT22;38046;49.448;32.074;2023-02-15T10:38:25;4.60;59.70
52036;DHT22;38046;49.448;32.074;2023-02-15T10:41:31;4.70;60.00
52036;DHT22;38046;49.448;32.074;2023-02-15T10:44:36;4.70;59.40
52036;DHT22;38046;49.448;32.074;2023-02-15T10:49:53;4.60;59.30
52036;DHT22;38046;49.448;32.074;2023-02-15T11:00:19;4.70;59.20
52036;DHT22;38046;49.448;32.074;2023-02-15T11:08:05;4.70;58.50
52036;DHT22;38046;49.448;32.074;2023-02-15T11:10:51;4.70;59.10
52036;DHT22;38046;49.448;32.074;2023-02-15T11:13:20;4.80;58.60
52036;DHT22;38046;49.448;32.074;2023-02-15T11:15:56;4.70;58.50
52036;DHT22;38046;49.448;32.074;2023-02-15T11:21:16;4.70;58.20
52036;DHT22;38046;49.448;32.074;2023-02-15T11:23:44;4.70;57.90
52036;DHT22;38046;49.448;32.074;2023-02-15T11:26:34;4.70;58.10
52036;DHT22;38046;49.448;32.074;2023-02-15T11:31:46;4.70;58.40
52036;DHT22;38046;49.448;32.074;2023-02-15T11:34:34;4.70;58.70
52036;DHT22;38046;49.448;32.074;2023-02-15T11:37:06;4.70;58.90
52036;DHT22;38046;49.448;32.074;2023-02-15T11:39:33;4.60;58.70
52036;DHT22;38046;49.448;32.074;2023-02-15T11:42:06;4.60;58.80
52036;DHT22;38046;49.448;32.074;2023-02-15T11:44:44;4.50;58.60
52036;DHT22;38046;49.448;32.074;2023-02-15T11:47:12;4.50;59.30
52036;DHT22;38046;49.448;32.074;2023-02-15T11:49:39;4.50;59.70
52036;DHT22;38046;49.448;32.074;2023-02-15T11:52:07;4.50;59.80
52036;DHT22;38046;49.448;32.074;2023-02-15T11:54:39;4.50;59.70
52036;DHT22;38046;49.448;32.074;2023-02-15T11:59:56;4.40;58.90
52036;DHT22;38046;49.448;32.074;2023-02-15T12:02:23;4.40;59.20
52036;DHT22;38046;49.448;32.074;2023-02-15T12:04:59;4.40;59.50
52036;DHT22;38046;49.448;32.074;2023-02-15T12:07:36;4.40;59.60
52036;DHT22;38046;49.448;32.074;2023-02-15T12:12:43;4.30;59.30
52036;DHT22;38046;49.448;32.074;2023-02-15T12:15:11;4.30;59.10
52036;DHT22;38046;49.448;32.074;2023-02-15T12:17:52;4.30;59.20
52036;DHT22;38046;49.448;32.074;2023-02-15T12:20:24;4.30;59.80
52036;DHT22;38046;49.448;32.074;2023-02-15T12:25:50;4.30;59.60
52036;DHT22;38046;49.448;32.074;2023-02-15T12:28:33;4.30;59.40
52036;DHT22;38046;49.448;32.074;2023-02-15T12:31:01;4.30;59.00
52036;DHT22;38046;49.448;32.074;2023-02-15T12:33:35;4.20;59.20
52036;DHT22;38046;49.448;32.074;2023-02-15T12:38:36;4.20;59.50
52036;DHT22;38046;49.448;32.074;2023-02-15T12:41:23;4.20;59.60
52036;DHT22;38046;49.448;32.074;2023-02-15T12:44:04;4.20;59.40
52036;DHT22;38046;49.448;32.074;2023-02-15T12:46:30;4.20;59.50
52036;DHT22;38046;49.448;32.074;2023-02-15T12:49:19;4.20;59.80
52036;DHT22;38046;49.448;32.074;2023-02-15T12:51:52;4.20;59.60
52036;DHT22;38046;49.448;32.074;2023-02-15T12:54:31;4.10;59.80
52036;DHT22;38046;49.448;32.074;2023-02-15T12:56:58;4.10;59.80
52036;DHT22;38046;49.448;32.074;2023-02-15T12:59:24;4.10;60.10
52036;DHT22;38046;49.448;32.074;2023-02-15T13:01:53;4.10;60.50
52036;DHT22;38046;49.448;32.074;2023-02-15T13:04:26;4.10;60.50
52036;DHT22;38046;49.448;32.074;2023-02-15T13:06:55;4.10;60.50
52036;DHT22;38046;49.448;32.074;2023-02-15T13:09:37;4.00;60.00
52036;DHT22;38046;49.448;32.074;2023-02-15T13:12:24;4.00;60.40
52036;DHT22;38046;49.448;32.074;2023-02-15T13:14:53;3.90;60.00
52036;DHT22;38046;49.448;32.074;2023-02-15T13:17:40;3.90;60.30
52036;DHT22;38046;49.448;32.074;2023-02-15T13:20:19;3.90;60.30
52036;DHT22;38046;49.448;32.074;2023-02-15T13:22:49;3.90;60.70
52036;DHT22;38046;49.448;32.074;2023-02-15T13:25:21;3.90;60.90
52036;DHT22;38046;49.448;32.074;2023-02-15T13:28:07;4.00;61.10
52036;DHT22;38046;49.448;32.074;2023-02-15T13:30:40;4.00;61.10
52036;DHT22;38046;49.448;32.074;2023-02-15T13:35:53;4.00;61.50
52036;DHT22;38046;49.448;32.074;2023-02-15T13:38:46;4.00;62.10
52036;DHT22;38046;49.448;32.074;2023-02-15T13:41:44;4.00;60.80
52036;DHT22;38046;49.448;32.074;2023-02-15T13:45:08;4.00;60.80
52036;DHT22;38046;49.448;32.074;2023-02-15T13:52:54;4.00;61.40
52036;DHT22;38046;49.448;32.074;2023-02-15T13:55:27;4.00;61.40
52036;DHT22;38046;49.448;32.074;2023-02-15T14:01:10;4.00;61.70
52036;DHT22;38046;49.448;32.074;2023-02-15T14:28:30;3.90;62.10
52036;DHT22;38046;49.448;32.074;2023-02-15T14:30:56;3.90;62.40
52036;DHT22;38046;49.448;32.074;2023-02-15T14:33:38;3.90;62.40
52036;DHT22;38046;49.448;32.074;2023-02-15T14:36:12;3.90;62.40
52036;DHT22;38046;49.448;32.074;2023-02-15T14:42:23;3.90;62.20
52036;DHT22;38046;49.448;32.074;2023-02-15T14:45:19;3.80;62.00
52036;DHT22;38046;49.448;32.074;2023-02-15T14:48:00;3.90;62.00
52036;DHT22;38046;49.448;32.074;2023-02-15T14:59:00;3.80;61.90
52036;DHT22;38046;49.448;32.074;2023-02-15T15:01:34;3.80;61.90
52036;DHT22;38046;49.448;32.074;2023-02-15T15:04:05;3.80;62.00
52036;DHT22;38046;49.448;32.074;2023-02-15T15:06:38;3.80;61.90
52036;DHT22;38046;49.448;32.074;2023-02-15T15:09:22;3.80;61.80
52036;DHT22;38046;49.448;32.074;2023-02-15T15:11:52;3.80;61.50
52036;DHT22;38046;49.448;32.074;2023-02-15T15:17:02;3.80;61.80
52036;DHT22;38046;49.448;32.074;2023-02-15T15:22:22;3.70;61.50
52036;DHT22;38046;49.448;32.074;2023-02-15T15:24:51;3.70;61.10
52036;DHT22;38046;49.448;32.074;2023-02-15T15:33:06;3.70;60.70
52036;DHT22;38046;49.448;32.074;2023-02-15T15:50:26;3.70;60.70
52036;DHT22;38046;49.448;32.074;2023-02-15T15:52:58;3.70;60.80
52036;DHT22;38046;49.448;32.074;2023-02-15T15:55:27;3.70;60.80
52036;DHT22;38046;49.448;32.074;2023-02-15T15:57:56;3.70;61.00
52036;DHT22;38046;49.448;32.074;2023-02-15T16:00:50;3.70;60.80
52036;DHT22;38046;49.448;32.074;2023-02-15T16:03:22;3.70;60.70
52036;DHT22;38046;49.448;32.074;2023-02-15T16:05:49;3.70;60.80
52036;DHT22;38046;49.448;32.074;2023-02-15T16:10:56;3.70;60.80
52036;DHT22;38046;49.448;32.074;2023-02-15T16:13:23;3.70;60.90
52036;DHT22;38046;49.448;32.074;2023-02-15T16:15:53;3.70;60.90
52036;DHT22;38046;49.448;32.074;2023-02-15T16:18:23;3.70;61.00
52036;DHT22;38046;49.448;32.074;2023-02-15T16:21:00;3.70;60.90
52036;DHT22;38046;49.448;32.074;2023-02-15T16:28:56;3.70;61.20
52036;DHT22;38046;49.448;32.074;2023-02-15T16:31:22;3.70;61.00
52036;DHT22;38046;49.448;32.074;2023-02-15T16:33:48;3.70;60.60
52036;DHT22;38046;49.448;32.074;2023-02-15T16:36:27;3.70;60.50
52036;DHT22;38046;49.448;32.074;2023-02-15T16:41:27;3.80;60.40
52036;DHT22;38046;49.448;32.074;2023-02-15T16:43:55;3.70;60.20
52036;DHT22;38046;49.448;32.074;2023-02-15T16:46:26;3.70;60.20
52036;DHT22;38046;49.448;32.074;2023-02-15T16:48:54;3.70;60.00
52036;DHT22;38046;49.448;32.074;2023-02-15T16:51:24;3.70;60.10
52036;DHT22;38046;49.448;32.074;2023-02-15T16:53:51;3.80;60.00
52036;DHT22;38046;49.448;32.074;2023-02-15T16:56:30;3.70;60.00
52036;DHT22;38046;49.448;32.074;2023-02-15T16:58:56;3.70;60.10
52036;DHT22;38046;49.448;32.074;2023-02-15T17:01:26;3.70;60.10
52036;DHT22;38046;49.448;32.074;2023-02-15T17:04:27;3.70;60.20
52036;DHT22;38046;49.448;32.074;2023-02-15T17:07:19;3.70;60.20
52036;DHT22;38046;49.448;32.074;2023-02-15T17:09:53;3.70;60.40
52036;DHT22;38046;49.448;32.074;2023-02-15T17:15:31;3.70;61.00
52036;DHT22;38046;49.448;32.074;2023-02-15T17:20:33;3.60;61.20
52036;DHT22;38046;49.448;32.074;2023-02-15T17:23:01;3.60;61.10
52036;DHT22;38046;49.448;32.074;2023-02-15T17:25:39;3.60;61.30
52036;DHT22;38046;49.448;32.074;2023-02-15T17:28:19;3.60;61.50
52036;DHT22;38046;49.448;32.074;2023-02-15T17:30:45;3.60;61.40
52036;DHT22;38046;49.448;32.074;2023-02-15T17:33:22;3.60;61.60
52036;DHT22;38046;49.448;32.074;2023-02-15T17:36:16;3.60;61.60
52036;DHT22;38046;49.448;32.074;2023-02-15T17:41:26;3.50;61.90
52036;DHT22;38046;49.448;32.074;2023-02-15T17:43:52;3.50;61.80
52036;DHT22;38046;49.448;32.074;2023-02-15T17:46:18;3.50;62.00
52036;DHT22;38046;49.448;32.074;2023-02-15T17:48:49;3.50;62.20
52036;DHT22;38046;49.448;32.074;2023-02-15T17:51:15;3.50;62.30
52036;DHT22;38046;49.448;32.074;2023-02-15T17:53:42;3.40;62.30
52036;DHT22;38046;49.448;32.074;2023-02-15T17:56:32;3.40;62.60
52036;DHT22;38046;49.448;32.074;2023-02-15T17:58:58;3.40;62.50
52036;DHT22;38046;49.448;32.074;2023-02-15T18:01:23;3.40;62.70
52036;DHT22;38046;49.448;32.074;2023-02-15T18:04:10;3.40;62.70
52036;DHT22;38046;49.448;32.074;2023-02-15T18:06:55;3.40;62.80
52036;DHT22;38046;49.448;32.074;2023-02-15T18:09:40;3.40;62.90
52036;DHT22;38046;49.448;32.074;2023-02-15T18:12:32;3.30;63.00
52036;DHT22;38046;49.448;32.074;2023-02-15T18:14:58;3.30;63.00
52036;DHT22;38046;49.448;32.074;2023-02-15T18:17:45;3.30;63.20
52036;DHT22;38046;49.448;32.074;2023-02-15T18:20:19;3.30;62.90
52036;DHT22;38046;49.448;32.074;2023-02-15T18:22:45;3.30;62.90
52036;DHT22;38046;49.448;32.074;2023-02-15T18:25:16;3.30;62.90
52036;DHT22;38046;49.448;32.074;2023-02-15T18:27:42;3.20;62.90
52036;DHT22;38046;49.448;32.074;2023-02-15T18:30:15;3.20;63.00
52036;DHT22;38046;49.448;32.074;2023-02-15T18:32:42;3.20;63.10
52036;DHT22;38046;49.448;32.074;2023-02-15T18:35:16;3.20;63.20
52036;DHT22;38046;49.448;32.074;2023-02-15T18:37:42;3.20;63.20
52036;DHT22;38046;49.448;32.074;2023-02-15T18:40:14;3.20;63.40
52036;DHT22;38046;49.448;32.074;2023-02-15T18:42:40;3.10;63.20
52036;DHT22;38046;49.448;32.074;2023-02-15T18:45:21;3.10;63.20
52036;DHT22;38046;49.448;32.074;2023-02-15T18:47:49;3.10;63.20
52036;DHT22;38046;49.448;32.074;2023-02-15T18:50:17;3.10;63.20
52036;DHT22;38046;49.448;32.074;2023-02-15T18:52:45;3.10;63.40
52036;DHT22;38046;49.448;32.074;2023-02-15T18:55:27;3.00;63.50
52036;DHT22;38046;49.448;32.074;2023-02-15T18:57:53;3.00;63.40
52036;DHT22;38046;49.448;32.074;2023-02-15T19:00:25;2.90;63.60
52036;DHT22;38046;49.448;32.074;2023-02-15T19:02:55;2.90;63.60
52036;DHT22;38046;49.448;32.074;2023-02-15T19:05:21;2.90;63.50
52036;DHT22;38046;49.448;32.074;2023-02-15T19:07:48;2.90;63.80
52036;DHT22;38046;49.448;32.074;2023-02-15T19:10:20;2.90;63.80
52036;DHT22;38046;49.448;32.074;2023-02-15T19:12:47;3.00;63.70
52036;DHT22;38046;49.448;32.074;2023-02-15T19:15:14;2.90;63.80
52036;DHT22;38046;49.448;32.074;2023-02-15T19:17:40;2.90;63.60
52036;DHT22;38046;49.448;32.074;2023-02-15T19:20:08;2.90;63.80
52036;DHT22;38046;49.448;32.074;2023-02-15T19:22:34;2.90;63.70
52036;DHT22;38046;49.448;32.074;2023-02-15T19:25:02;2.90;63.60
52036;DHT22;38046;49.448;32.074;2023-02-15T19:27:31;2.90;63.70
52036;DHT22;38046;49.448;32.074;2023-02-15T19:30:03;2.90;64.00
52036;DHT22;38046;49.448;32.074;2023-02-15T19:32:29;2.90;64.00
52036;DHT22;38046;49.448;32.074;2023-02-15T19:34:56;2.90;64.30
52036;DHT22;38046;49.448;32.074;2023-02-15T19:39:58;2.80;64.50